sensor_id;sensor_type;location;lat;lon;timestamp;pressure;altitude;pressure_sealevel;temperature;humidity
50590;BME280;36547;50.514;30.840;2023-08-31T00:00:53;99448.72;;;20.91;62.00
50590;BME280;36547;50.514;30.840;2023-08-31T00:01:55;99451.07;;;20.94;61.76
50590;BME280;36547;50.514;30.840;2023-08-31T00:02:57;99449.22;;;20.95;61.71
50590;BME280;36547;50.514;30.840;2023-08-31T00:04:00;99446.67;;;20.93;62.00
50590;BME280;36547;50.514;30.840;2023-08-31T00:05:03;99448.05;;;20.97;61.68
50590;BME280;36547;50.514;30.840;2023-08-31T00:06:06;99450.22;;;20.94;62.08
50590;BME280;36547;50.514;30.840;2023-08-31T00:07:08;99450.38;;;20.92;62.23
50590;BME280;36547;50.514;30.840;2023-08-31T00:08:11;99448.03;;;20.89;62.21
50590;BME280;36547;50.514;30.840;2023-08-31T00:09:13;99450.05;;;20.87;62.31
50590;BME280;36547;50.514;30.840;2023-08-31T00:10:16;99460.48;;;20.82;62.31
50590;BME280;36547;50.514;30.840;2023-08-31T00:11:19;99447.66;;;20.84;62.04
50590;BME280;36547;50.514;30.840;2023-08-31T00:12:22;99455.77;;;20.84;62.27
50590;BME280;36547;50.514;30.840;2023-08-31T00:13:25;99451.69;;;20.80;62.28
50590;BME280;36547;50.514;30.840;2023-08-31T00:14:28;99459.09;;;20.78;62.44
50590;BME280;36547;50.514;30.840;2023-08-31T00:15:31;99459.09;;;20.78;62.47
50590;BME280;36547;50.514;30.840;2023-08-31T00:16:34;99453.20;;;20.74;62.68
50590;BME280;36547;50.514;30.840;2023-08-31T00:17:36;99448.64;;;20.75;62.64
50590;BME280;36547;50.514;30.840;2023-08-31T00:18:38;99454.36;;;20.72;63.12
50590;BME280;36547;50.514;30.840;2023-08-31T00:19:40;99455.90;;;20.74;62.68
50590;BME280;36547;50.514;30.840;2023-08-31T00:20:42;99454.68;;;20.69;62.92
50590;BME280;36547;50.514;30.840;2023-08-31T00:21:45;99452.13;;;20.67;63.06
50590;BME280;36547;50.514;30.840;2023-08-31T00:22:47;99448.59;;;20.67;63.05
50590;BME280;36547;50.514;30.840;2023-08-31T00:23:50;99458.04;;;20.63;62.75
50590;BME280;36547;50.514;30.840;2023-08-31T00:24:52;99450.94;;;20.62;63.10
50590;BME280;36547;50.514;30.840;2023-08-31T00:25:54;99447.89;;;20.65;63.17
50590;BME280;36547;50.514;30.840;2023-08-31T00:26:57;99452.64;;;20.63;63.19
50590;BME280;36547;50.514;30.840;2023-08-31T00:27:59;99454.49;;;20.62;62.91
50590;BME280;36547;50.514;30.840;2023-08-31T00:29:02;99449.41;;;20.59;62.82
50590;BME280;36547;50.514;30.840;2023-08-31T00:30:05;99443.16;;;20.59;63.08
50590;BME280;36547;50.514;30.840;2023-08-31T00:31:09;99449.41;;;20.59;63.21
50590;BME280;36547;50.514;30.840;2023-08-31T00:32:19;99458.07;;;20.71;63.21
50590;BME280;36547;50.514;30.840;2023-08-31T00:33:21;99457.44;;;20.51;63.20
50590;BME280;36547;50.514;30.840;2023-08-31T00:34:24;99461.99;;;20.51;63.33
50590;BME280;36547;50.514;30.840;2023-08-31T00:35:27;99457.98;;;20.55;63.24
50590;BME280;36547;50.514;30.840;2023-08-31T00:37:39;99442.50;;;20.65;63.65
50590;BME280;36547;50.514;30.840;2023-08-31T00:38:43;99448.61;;;20.41;63.95
50590;BME280;36547;50.514;30.840;2023-08-31T00:39:46;99445.06;;;20.40;63.80
50590;BME280;36547;50.514;30.840;2023-08-31T00:40:48;99450.47;;;20.40;64.01
50590;BME280;36547;50.514;30.840;2023-08-31T00:41:52;99446.77;;;20.41;63.90
50590;BME280;36547;50.514;30.840;2023-08-31T00:42:55;99449.62;;;20.40;64.14
50590;BME280;36547;50.514;30.840;2023-08-31T00:43:58;99448.15;;;20.45;63.88
50590;BME280;36547;50.514;30.840;2023-08-31T00:45:00;99452.70;;;20.45;64.04
50590;BME280;36547;50.514;30.840;2023-08-31T00:46:03;99447.45;;;20.43;64.11
50590;BME280;36547;50.514;30.840;2023-08-31T00:47:05;99442.75;;;20.45;63.89
50590;BME280;36547;50.514;30.840;2023-08-31T00:48:08;99449.84;;;20.46;63.77
50590;BME280;36547;50.514;30.840;2023-08-31T00:49:11;99439.73;;;20.49;63.96
50590;BME280;36547;50.514;30.840;2023-08-31T00:50:14;99450.00;;;20.45;64.16
50590;BME280;36547;50.514;30.840;2023-08-31T00:51:16;99447.83;;;20.49;64.15
50590;BME280;36547;50.514;30.840;2023-08-31T00:52:19;99440.73;;;20.48;64.34
50590;BME280;36547;50.514;30.840;2023-08-31T00:53:23;99443.44;;;20.48;64.16
50590;BME280;36547;50.514;30.840;2023-08-31T00:54:26;99446.98;;;20.48;64.11
50590;BME280;36547;50.514;30.840;2023-08-31T00:55:30;99449.16;;;20.44;64.26
50590;BME280;36547;50.514;30.840;2023-08-31T00:56:32;99443.75;;;20.44;64.25
50590;BME280;36547;50.514;30.840;2023-08-31T00:57:34;99446.45;;;20.44;64.36
50590;BME280;36547;50.514;30.840;2023-08-31T00:58:37;99444.44;;;20.46;64.36
50590;BME280;36547;50.514;30.840;2023-08-31T00:59:41;99443.25;;;20.49;64.18
50590;BME280;36547;50.514;30.840;2023-08-31T01:02:20;99445.29;;;20.47;64.39
50590;BME280;36547;50.514;30.840;2023-08-31T01:03:40;99447.83;;;20.49;64.13
50590;BME280;36547;50.514;30.840;2023-08-31T01:07:54;99444.19;;;20.66;64.13
50590;BME280;36547;50.514;30.840;2023-08-31T01:10:43;99444.54;;;20.63;64.23
50590;BME280;36547;50.514;30.840;2023-08-31T01:12:02;99448.15;;;20.45;64.40
50590;BME280;36547;50.514;30.840;2023-08-31T01:13:07;99445.45;;;20.45;64.67
50590;BME280;36547;50.514;30.840;2023-08-31T01:14:17;99433.52;;;20.56;64.50
50590;BME280;36547;50.514;30.840;2023-08-31T01:15:22;99433.42;;;20.40;64.27
50590;BME280;36547;50.514;30.840;2023-08-31T01:16:25;99434.27;;;20.40;64.34
50590;BME280;36547;50.514;30.840;2023-08-31T01:17:29;99441.67;;;20.38;64.69
50590;BME280;36547;50.514;30.840;2023-08-31T01:18:33;99444.06;;;20.41;64.58
50590;BME280;36547;50.514;30.840;2023-08-31T01:23:29;99438.54;;;20.51;64.57
50590;BME280;36547;50.514;30.840;2023-08-31T01:24:31;99439.98;;;20.37;64.93
50590;BME280;36547;50.514;30.840;2023-08-31T01:25:35;99433.86;;;20.35;65.08
50590;BME280;36547;50.514;30.840;2023-08-31T01:26:40;99439.26;;;20.35;64.90
50590;BME280;36547;50.514;30.840;2023-08-31T01:27:44;99438.28;;;20.36;64.74
50590;BME280;36547;50.514;30.840;2023-08-31T01:28:47;99437.56;;;20.34;64.78
50590;BME280;36547;50.514;30.840;2023-08-31T01:29:51;99440.61;;;20.31;64.87
50590;BME280;36547;50.514;30.840;2023-08-31T01:30:55;99435.20;;;20.31;64.88
50590;BME280;36547;50.514;30.840;2023-08-31T01:31:58;99433.51;;;20.30;64.99
50590;BME280;36547;50.514;30.840;2023-08-31T01:33:00;99431.81;;;20.29;65.07
50590;BME280;36547;50.514;30.840;2023-08-31T01:34:03;99433.51;;;20.30;65.00
50590;BME280;36547;50.514;30.840;2023-08-31T01:35:06;99429.05;;;20.21;65.50
50590;BME280;36547;50.514;30.840;2023-08-31T01:36:29;99428.42;;;20.27;65.24
50590;BME280;36547;50.514;30.840;2023-08-31T01:37:53;99431.59;;;20.23;65.24
50590;BME280;36547;50.514;30.840;2023-08-31T01:39:09;99429.42;;;20.26;65.15
50590;BME280;36547;50.514;30.840;2023-08-31T01:41:48;99422.78;;;20.38;64.98
50590;BME280;36547;50.514;30.840;2023-08-31T01:42:51;99419.52;;;20.09;65.70
50590;BME280;36547;50.514;30.840;2023-08-31T01:43:54;99428.31;;;20.11;65.70
50590;BME280;36547;50.514;30.840;2023-08-31T01:44:58;99428.31;;;20.11;65.51
50590;BME280;36547;50.514;30.840;2023-08-31T01:46:03;99435.09;;;20.15;65.37
50590;BME280;36547;50.514;30.840;2023-08-31T01:47:08;99421.76;;;20.13;65.15
50590;BME280;36547;50.514;30.840;2023-08-31T01:49:36;99422.80;;;20.21;65.06
50590;BME280;36547;50.514;30.840;2023-08-31T01:50:39;99426.61;;;20.10;65.06
50590;BME280;36547;50.514;30.840;2023-08-31T01:51:41;99420.22;;;20.11;65.09
50590;BME280;36547;50.514;30.840;2023-08-31T01:52:44;99422.22;;;20.09;65.02
50590;BME280;36547;50.514;30.840;2023-08-31T01:53:47;99421.53;;;20.07;65.01
50590;BME280;36547;50.514;30.840;2023-08-31T01:54:49;99417.67;;;20.09;65.42
50590;BME280;36547;50.514;30.840;2023-08-31T01:55:52;99422.37;;;20.07;64.59
50590;BME280;36547;50.514;30.840;2023-08-31T01:56:56;99427.27;;;20.04;64.73
50590;BME280;36547;50.514;30.840;2023-08-31T01:57:58;99423.02;;;20.01;64.80
50590;BME280;36547;50.514;30.840;2023-08-31T01:59:03;99428.11;;;20.04;64.66
50590;BME280;36547;50.514;30.840;2023-08-31T02:00:07;99427.42;;;20.02;64.76
50590;BME280;36547;50.514;30.840;2023-08-31T02:01:18;99430.42;;;19.99;64.73
50590;BME280;36547;50.514;30.840;2023-08-31T02:02:21;99429.58;;;19.99;64.66
50590;BME280;36547;50.514;30.840;2023-08-31T02:03:24;99437.62;;;19.91;64.80
50590;BME280;36547;50.514;30.840;2023-08-31T02:04:26;99439.28;;;19.92;64.84
50590;BME280;36547;50.514;30.840;2023-08-31T02:05:30;99439.63;;;19.89;64.87
50590;BME280;36547;50.514;30.840;2023-08-31T02:06:33;99439.23;;;19.84;65.06
50590;BME280;36547;50.514;30.840;2023-08-31T02:07:35;99442.08;;;19.82;65.05
50590;BME280;36547;50.514;30.840;2023-08-31T02:08:37;99440.84;;;19.76;65.19
50590;BME280;36547;50.514;30.840;2023-08-31T02:09:39;99440.17;;;19.74;65.25
50590;BME280;36547;50.514;30.840;2023-08-31T02:10:42;99447.92;;;19.77;65.19
50590;BME280;36547;50.514;30.840;2023-08-31T02:11:44;99442.53;;;19.77;65.23
50590;BME280;36547;50.514;30.840;2023-08-31T02:12:48;99443.88;;;19.73;65.23
50590;BME280;36547;50.514;30.840;2023-08-31T02:13:51;99446.56;;;19.73;65.29
50590;BME280;36547;50.514;30.840;2023-08-31T02:14:54;99446.56;;;19.73;65.32
50590;BME280;36547;50.514;30.840;2023-08-31T02:15:56;99450.56;;;19.69;65.44
50590;BME280;36547;50.514;30.840;2023-08-31T02:16:58;99438.09;;;19.68;65.45
50590;BME280;36547;50.514;30.840;2023-08-31T02:18:01;99440.93;;;19.67;65.47
50590;BME280;36547;50.514;30.840;2023-08-31T02:19:05;99453.56;;;19.66;65.53
50590;BME280;36547;50.514;30.840;2023-08-31T02:20:09;99448.56;;;19.71;65.37
50590;BME280;36547;50.514;30.840;2023-08-31T02:21:11;99441.78;;;19.67;65.47
50590;BME280;36547;50.514;30.840;2023-08-31T02:22:16;99446.17;;;19.68;65.49
50590;BME280;36547;50.514;30.840;2023-08-31T02:23:18;99441.23;;;19.64;65.55
50590;BME280;36547;50.514;30.840;2023-08-31T02:24:20;99446.63;;;19.64;65.62
50590;BME280;36547;50.514;30.840;2023-08-31T02:25:23;99449.47;;;19.62;65.61
50590;BME280;36547;50.514;30.840;2023-08-31T02:26:26;99448.81;;;19.60;65.63
50590;BME280;36547;50.514;30.840;2023-08-31T02:27:28;99441.02;;;19.57;65.56
50590;BME280;36547;50.514;30.840;2023-08-31T02:28:30;99445.41;;;19.58;65.47
50590;BME280;36547;50.514;30.840;2023-08-31T02:29:33;99445.41;;;19.58;65.58
50590;BME280;36547;50.514;30.840;2023-08-31T02:30:36;99441.02;;;19.57;65.54
50590;BME280;36547;50.514;30.840;2023-08-31T02:31:40;99447.11;;;19.59;65.47
50590;BME280;36547;50.514;30.840;2023-08-31T02:32:42;99446.71;;;19.54;65.41
50590;BME280;36547;50.514;30.840;2023-08-31T02:33:48;99446.41;;;19.57;65.39
50590;BME280;36547;50.514;30.840;2023-08-31T02:34:50;99452.80;;;19.56;65.27
50590;BME280;36547;50.514;30.840;2023-08-31T02:35:54;99448.26;;;19.57;65.14
50590;BME280;36547;50.514;30.840;2023-08-31T02:36:57;99443.72;;;19.57;65.16
50590;BME280;36547;50.514;30.840;2023-08-31T02:38:02;99453.50;;;19.58;64.95
50590;BME280;36547;50.514;30.840;2023-08-31T02:39:04;99451.80;;;19.57;64.89
50590;BME280;36547;50.514;30.840;2023-08-31T02:40:08;99450.80;;;19.58;64.91
50590;BME280;36547;50.514;30.840;2023-08-31T02:41:10;99448.66;;;19.62;64.99
50590;BME280;36547;50.514;30.840;2023-08-31T02:42:16;99445.78;;;19.63;65.18
50590;BME280;36547;50.514;30.840;2023-08-31T02:43:21;99451.17;;;19.63;64.70
50590;BME280;36547;50.514;30.840;2023-08-31T02:44:24;99451.17;;;19.63;64.52
50590;BME280;36547;50.514;30.840;2023-08-31T02:45:28;99445.96;;;19.62;64.64
50590;BME280;36547;50.514;30.840;2023-08-31T02:46:30;99441.39;;;19.62;64.43
50590;BME280;36547;50.514;30.840;2023-08-31T02:47:34;99453.20;;;19.61;64.59
50590;BME280;36547;50.514;30.840;2023-08-31T02:48:38;99453.50;;;19.58;64.78
50590;BME280;36547;50.514;30.840;2023-08-31T02:49:40;99450.50;;;19.61;64.62
50590;BME280;36547;50.514;30.840;2023-08-31T02:50:43;99448.81;;;19.60;64.67
50590;BME280;36547;50.514;30.840;2023-08-31T02:51:45;99457.20;;;19.57;64.48
50590;BME280;36547;50.514;30.840;2023-08-31T02:52:48;99448.81;;;19.60;64.42
50590;BME280;36547;50.514;30.840;2023-08-31T02:53:50;99449.47;;;19.62;64.30
50590;BME280;36547;50.514;30.840;2023-08-31T02:54:53;99453.20;;;19.61;64.51
50590;BME280;36547;50.514;30.840;2023-08-31T02:55:56;99454.05;;;19.62;64.36
50590;BME280;36547;50.514;30.840;2023-08-31T02:56:59;99453.50;;;19.58;64.28
50590;BME280;36547;50.514;30.840;2023-08-31T02:58:01;99459.05;;;19.57;64.29
50590;BME280;36547;50.514;30.840;2023-08-31T02:59:03;99451.80;;;19.57;64.22
50590;BME280;36547;50.514;30.840;2023-08-31T03:00:08;99454.50;;;19.57;64.19
50590;BME280;36547;50.514;30.840;2023-08-31T03:01:13;99451.80;;;19.57;63.99
50590;BME280;36547;50.514;30.840;2023-08-31T03:02:18;99458.05;;;19.58;63.95
50590;BME280;36547;50.514;30.840;2023-08-31T03:03:20;99454.86;;;19.62;63.99
50590;BME280;36547;50.514;30.840;2023-08-31T03:04:23;99461.95;;;19.63;63.90
50590;BME280;36547;50.514;30.840;2023-08-31T03:05:25;99456.56;;;19.63;63.58
50590;BME280;36547;50.514;30.840;2023-08-31T03:06:28;99458.59;;;19.61;63.93
50590;BME280;36547;50.514;30.840;2023-08-31T03:07:33;99453.86;;;19.63;63.63
50590;BME280;36547;50.514;30.840;2023-08-31T03:08:36;99457.11;;;19.67;63.71
50590;BME280;36547;50.514;30.840;2023-08-31T03:09:39;99458.41;;;19.63;63.36
50590;BME280;36547;50.514;30.840;2023-08-31T03:10:42;99455.56;;;19.64;63.40
50590;BME280;36547;50.514;30.840;2023-08-31T03:11:45;99456.11;;;19.68;63.33
50590;BME280;36547;50.514;30.840;2023-08-31T03:12:47;99458.95;;;19.66;63.27
50590;BME280;36547;50.514;30.840;2023-08-31T03:13:51;99460.35;;;19.70;63.32
50590;BME280;36547;50.514;30.840;2023-08-31T03:14:54;99456.95;;;19.68;63.06
50590;BME280;36547;50.514;30.840;2023-08-31T03:15:59;99455.66;;;19.72;63.62
50590;BME280;36547;50.514;30.840;2023-08-31T03:17:02;99463.05;;;19.70;63.15
50590;BME280;36547;50.514;30.840;2023-08-31T03:18:04;99463.59;;;19.74;62.84
50590;BME280;36547;50.514;30.840;2023-08-31T03:19:07;99469.14;;;19.72;62.74
50590;BME280;36547;50.514;30.840;2023-08-31T03:20:10;99461.35;;;19.69;62.97
50590;BME280;36547;50.514;30.840;2023-08-31T03:21:13;99467.29;;;19.73;63.01
50590;BME280;36547;50.514;30.840;2023-08-31T03:22:16;99462.59;;;19.75;63.28
50590;BME280;36547;50.514;30.840;2023-08-31T03:23:19;99454.32;;;19.76;63.78
50590;BME280;36547;50.514;30.840;2023-08-31T03:24:21;99453.32;;;19.77;63.67
50590;BME280;36547;50.514;30.840;2023-08-31T03:25:23;99462.95;;;19.80;63.91
50590;BME280;36547;50.514;30.840;2023-08-31T03:26:26;99461.26;;;19.79;63.28
50590;BME280;36547;50.514;30.840;2023-08-31T03:27:29;99460.11;;;19.82;63.06
50590;BME280;36547;50.514;30.840;2023-08-31T03:28:31;99461.80;;;19.83;63.04
50590;BME280;36547;50.514;30.840;2023-08-31T03:29:34;99458.26;;;19.82;62.83
50590;BME280;36547;50.514;30.840;2023-08-31T03:30:37;99456.26;;;19.84;63.65
50590;BME280;36547;50.514;30.840;2023-08-31T03:31:40;99447.02;;;19.87;63.82
50590;BME280;36547;50.514;30.840;2023-08-31T03:32:42;99456.11;;;19.86;63.44
50590;BME280;36547;50.514;30.840;2023-08-31T03:33:45;99455.80;;;19.89;64.08
50590;BME280;36547;50.514;30.840;2023-08-31T03:34:48;99453.80;;;19.91;64.01
50590;BME280;36547;50.514;30.840;2023-08-31T03:35:50;99455.65;;;19.90;64.10
50590;BME280;36547;50.514;30.840;2023-08-31T03:36:53;99454.47;;;19.93;63.97
50590;BME280;36547;50.514;30.840;2023-08-31T03:37:55;99445.37;;;19.94;64.44
50590;BME280;36547;50.514;30.840;2023-08-31T03:38:58;99456.16;;;19.94;63.73
50590;BME280;36547;50.514;30.840;2023-08-31T03:40:01;99447.77;;;19.97;63.42
50590;BME280;36547;50.514;30.840;2023-08-31T03:41:05;99453.31;;;19.95;63.66
50590;BME280;36547;50.514;30.840;2023-08-31T03:42:07;99455.00;;;19.96;63.28
50590;BME280;36547;50.514;30.840;2023-08-31T03:43:09;99460.25;;;19.98;62.97
50590;BME280;36547;50.514;30.840;2023-08-31T03:44:12;99451.46;;;19.96;62.82
50590;BME280;36547;50.514;30.840;2023-08-31T03:45:16;99458.25;;;20.00;62.89
50590;BME280;36547;50.514;30.840;2023-08-31T03:46:19;99459.40;;;19.97;62.74
50590;BME280;36547;50.514;30.840;2023-08-31T03:47:22;99458.70;;;19.95;62.71
50590;BME280;36547;50.514;30.840;2023-08-31T03:48:25;99451.77;;;19.93;62.87
50590;BME280;36547;50.514;30.840;2023-08-31T03:49:28;99457.16;;;19.93;62.40
50590;BME280;36547;50.514;30.840;2023-08-31T03:50:30;99453.16;;;19.97;62.57
50590;BME280;36547;50.514;30.840;2023-08-31T03:51:32;99456.55;;;19.99;63.10
50590;BME280;36547;50.514;30.840;2023-08-31T03:52:36;99459.09;;;20.00;63.31
50590;BME280;36547;50.514;30.840;2023-08-31T03:53:38;99462.80;;;19.99;64.18
50590;BME280;36547;50.514;30.840;2023-08-31T03:54:42;99463.33;;;20.03;64.41
50590;BME280;36547;50.514;30.840;2023-08-31T03:55:45;99463.84;;;20.06;64.67
50590;BME280;36547;50.514;30.840;2023-08-31T03:56:50;99467.55;;;20.05;64.15
50590;BME280;36547;50.514;30.840;2023-08-31T03:57:53;99464.39;;;20.10;64.01
50590;BME280;36547;50.514;30.840;2023-08-31T03:58:56;99469.47;;;20.13;63.68
50590;BME280;36547;50.514;30.840;2023-08-31T03:59:59;99466.78;;;20.13;63.79
50590;BME280;36547;50.514;30.840;2023-08-31T04:01:01;99464.47;;;20.18;63.38
50590;BME280;36547;50.514;30.840;2023-08-31T04:02:04;99467.16;;;20.18;63.32
50590;BME280;36547;50.514;30.840;2023-08-31T04:03:07;99463.92;;;20.15;63.64
50590;BME280;36547;50.514;30.840;2023-08-31T04:04:11;99463.46;;;20.19;64.19
50590;BME280;36547;50.514;30.840;2023-08-31T04:05:14;99462.97;;;20.24;64.84
50590;BME280;36547;50.514;30.840;2023-08-31T04:06:18;99459.42;;;20.23;64.28
50590;BME280;36547;50.514;30.840;2023-08-31T04:07:20;99464.52;;;20.26;65.19
50590;BME280;36547;50.514;30.840;2023-08-31T04:08:23;99459.11;;;20.26;62.85
50590;BME280;36547;50.514;30.840;2023-08-31T04:09:26;99460.81;;;20.27;62.98
50590;BME280;36547;50.514;30.840;2023-08-31T04:10:28;99460.81;;;20.27;63.30
50590;BME280;36547;50.514;30.840;2023-08-31T04:11:31;99460.34;;;20.32;63.23
50590;BME280;36547;50.514;30.840;2023-08-31T04:12:33;99462.19;;;20.31;62.91
50590;BME280;36547;50.514;30.840;2023-08-31T04:13:35;99464.73;;;20.33;62.74
50590;BME280;36547;50.514;30.840;2023-08-31T04:14:38;99466.75;;;20.31;63.01
50590;BME280;36547;50.514;30.840;2023-08-31T04:15:40;99462.89;;;20.33;63.03
50590;BME280;36547;50.514;30.840;2023-08-31T04:16:44;99472.14;;;20.31;61.23
50590;BME280;36547;50.514;30.840;2023-08-31T04:17:46;99469.29;;;20.32;61.21
50590;BME280;36547;50.514;30.840;2023-08-31T04:18:49;99463.55;;;20.35;61.69
50590;BME280;36547;50.514;30.840;2023-08-31T04:19:51;99467.97;;;20.36;62.08
50590;BME280;36547;50.514;30.840;2023-08-31T04:20:54;99461.85;;;20.34;60.63
50590;BME280;36547;50.514;30.840;2023-08-31T04:21:57;99464.55;;;20.34;60.85
50590;BME280;36547;50.514;30.840;2023-08-31T04:22:59;99463.20;;;20.30;59.93
50590;BME280;36547;50.514;30.840;2023-08-31T04:24:02;99471.14;;;20.32;60.27
50590;BME280;36547;50.514;30.840;2023-08-31T04:25:04;99467.91;;;20.28;59.32
50590;BME280;36547;50.514;30.840;2023-08-31T04:26:13;99466.75;;;20.31;59.93
50590;BME280;36547;50.514;30.840;2023-08-31T04:27:16;99467.59;;;20.31;59.46
50590;BME280;36547;50.514;30.840;2023-08-31T04:28:18;99466.20;;;20.27;58.66
50590;BME280;36547;50.514;30.840;2023-08-31T04:29:20;99463.35;;;20.29;59.47
50590;BME280;36547;50.514;30.840;2023-08-31T04:30:23;99469.91;;;20.26;59.34
50590;BME280;36547;50.514;30.840;2023-08-31T04:31:25;99475.00;;;20.29;59.95
50590;BME280;36547;50.514;30.840;2023-08-31T04:33:42;99478.89;;;20.35;59.14
50590;BME280;36547;50.514;30.840;2023-08-31T04:34:45;99475.84;;;20.30;59.75
50590;BME280;36547;50.514;30.840;2023-08-31T04:35:48;99471.60;;;20.27;58.55
50590;BME280;36547;50.514;30.840;2023-08-31T04:36:50;99468.91;;;20.27;57.87
50590;BME280;36547;50.514;30.840;2023-08-31T04:37:52;99468.21;;;20.25;57.95
50590;BME280;36547;50.514;30.840;2023-08-31T04:38:55;99466.52;;;20.24;58.12
50590;BME280;36547;50.514;30.840;2023-08-31T04:39:58;99469.21;;;20.24;57.67
50590;BME280;36547;50.514;30.840;2023-08-31T04:41:01;99471.06;;;20.24;57.80
50590;BME280;36547;50.514;30.840;2023-08-31T04:42:04;99473.61;;;20.25;58.17
50590;BME280;36547;50.514;30.840;2023-08-31T04:43:06;99475.61;;;20.23;57.51
50590;BME280;36547;50.514;30.840;2023-08-31T04:44:09;99481.01;;;20.23;57.54
50590;BME280;36547;50.514;30.840;2023-08-31T04:45:11;99474.92;;;20.21;57.55
50590;BME280;36547;50.514;30.840;2023-08-31T04:46:14;99473.41;;;20.19;57.75
50590;BME280;36547;50.514;30.840;2023-08-31T04:47:17;99471.56;;;20.19;57.27
50590;BME280;36547;50.514;30.840;2023-08-31T04:48:19;99474.56;;;20.16;57.12
50590;BME280;36547;50.514;30.840;2023-08-31T04:49:21;99485.36;;;20.16;57.26
50590;BME280;36547;50.514;30.840;2023-08-31T04:50:25;99485.36;;;20.16;57.37
50590;BME280;36547;50.514;30.840;2023-08-31T04:51:33;99486.36;;;20.15;57.46
50590;BME280;36547;50.514;30.840;2023-08-31T04:52:44;99480.70;;;20.26;57.22
50590;BME280;36547;50.514;30.840;2023-08-31T04:53:46;99481.73;;;20.07;57.72
50590;BME280;36547;50.514;30.840;2023-08-31T04:54:50;99481.27;;;20.12;57.21
50590;BME280;36547;50.514;30.840;2023-08-31T04:55:53;99482.27;;;20.11;57.53
50590;BME280;36547;50.514;30.840;2023-08-31T04:56:55;99481.73;;;20.07;57.09
50590;BME280;36547;50.514;30.840;2023-08-31T04:57:58;99487.82;;;20.09;57.05
50590;BME280;36547;50.514;30.840;2023-08-31T04:59:01;99485.42;;;20.06;57.12
50590;BME280;36547;50.514;30.840;2023-08-31T05:00:06;99482.91;;;20.05;57.08
50590;BME280;36547;50.514;30.840;2023-08-31T05:01:08;99484.06;;;20.02;57.16
50590;BME280;36547;50.514;30.840;2023-08-31T05:02:10;99480.52;;;20.02;57.20
50590;BME280;36547;50.514;30.840;2023-08-31T05:03:13;99479.83;;;20.00;57.12
50590;BME280;36547;50.514;30.840;2023-08-31T05:04:16;99481.83;;;19.98;57.08
50590;BME280;36547;50.514;30.840;2023-08-31T05:05:18;99481.67;;;19.99;57.57
50590;BME280;36547;50.514;30.840;2023-08-31T05:06:21;99477.83;;;20.02;57.84
50590;BME280;36547;50.514;30.840;2023-08-31T05:07:23;99480.83;;;19.99;57.15
50590;BME280;36547;50.514;30.840;2023-08-31T05:08:26;99482.52;;;20.00;56.76
50590;BME280;36547;50.514;30.840;2023-08-31T05:09:29;99486.22;;;19.99;56.83
50590;BME280;36547;50.514;30.840;2023-08-31T05:10:31;99487.22;;;19.98;57.19
50590;BME280;36547;50.514;30.840;2023-08-31T05:11:34;99480.13;;;19.97;56.56
50590;BME280;36547;50.514;30.840;2023-08-31T05:12:36;99490.77;;;19.98;56.74
50590;BME280;36547;50.514;30.840;2023-08-31T05:13:39;99485.38;;;19.98;56.76
50590;BME280;36547;50.514;30.840;2023-08-31T05:14:41;99481.67;;;19.99;56.60
50590;BME280;36547;50.514;30.840;2023-08-31T05:15:45;99483.22;;;20.02;56.78
50590;BME280;36547;50.514;30.840;2023-08-31T05:16:47;99486.61;;;20.04;56.89
50590;BME280;36547;50.514;30.840;2023-08-31T05:17:50;99491.01;;;20.05;56.11
50590;BME280;36547;50.514;30.840;2023-08-31T05:18:53;99488.97;;;20.07;56.28
50590;BME280;36547;50.514;30.840;2023-08-31T05:19:55;99484.27;;;20.09;55.75
50590;BME280;36547;50.514;30.840;2023-08-31T05:20:57;99485.97;;;20.10;56.34
50590;BME280;36547;50.514;30.840;2023-08-31T05:22:01;99492.06;;;20.12;55.93
50590;BME280;36547;50.514;30.840;2023-08-31T05:23:04;99494.77;;;20.12;55.64
50590;BME280;36547;50.514;30.840;2023-08-31T05:24:06;99489.05;;;20.15;55.71
50590;BME280;36547;50.514;30.840;2023-08-31T05:25:08;99494.45;;;20.15;55.43
50590;BME280;36547;50.514;30.840;2023-08-31T05:26:11;99492.30;;;20.19;55.33
50590;BME280;36547;50.514;30.840;2023-08-31T05:28:23;99494.58;;;20.31;55.37
50590;BME280;36547;50.514;30.840;2023-08-31T05:29:26;99502.59;;;20.23;55.32
50590;BME280;36547;50.514;30.840;2023-08-31T05:30:29;99501.29;;;20.27;55.05
50590;BME280;36547;50.514;30.840;2023-08-31T05:31:32;99501.98;;;20.29;55.17
50590;BME280;36547;50.514;30.840;2023-08-31T05:32:35;99510.78;;;20.31;55.15
50590;BME280;36547;50.514;30.840;2023-08-31T05:33:37;99504.38;;;20.32;54.48
50590;BME280;36547;50.514;30.840;2023-08-31T05:34:40;99503.38;;;20.33;54.09
50590;BME280;36547;50.514;30.840;2023-08-31T05:35:43;99501.22;;;20.37;55.15
50590;BME280;36547;50.514;30.840;2023-08-31T05:36:46;99500.21;;;20.38;54.39
50590;BME280;36547;50.514;30.840;2023-08-31T05:37:48;99502.45;;;20.42;54.28
50590;BME280;36547;50.514;30.840;2023-08-31T05:38:51;99504.14;;;20.43;54.72
50590;BME280;36547;50.514;30.840;2023-08-31T05:39:54;99512.94;;;20.45;53.30
50590;BME280;36547;50.514;30.840;2023-08-31T05:41:04;99511.94;;;20.46;53.85
50590;BME280;36547;50.514;30.840;2023-08-31T05:42:07;99510.59;;;20.51;53.92
50590;BME280;36547;50.514;30.840;2023-08-31T05:43:10;99514.83;;;20.53;53.81
50590;BME280;36547;50.514;30.840;2023-08-31T05:44:13;99514.52;;;20.56;54.32
50590;BME280;36547;50.514;30.840;2023-08-31T05:45:15;99516.75;;;20.61;54.17
50590;BME280;36547;50.514;30.840;2023-08-31T05:46:18;99520.15;;;20.63;54.01
50590;BME280;36547;50.514;30.840;2023-08-31T05:47:20;99528.59;;;20.68;53.58
50590;BME280;36547;50.514;30.840;2023-08-31T05:48:22;99517.48;;;20.71;53.11